createdAt,value
2022-11-07T00:01:53.775Z,283.33
2022-11-07T00:04:22.332Z,284.58
2022-11-07T00:06:50.737Z,277.33
2022-11-07T00:09:20.644Z,290.33
2022-11-07T00:11:49.061Z,290.50
2022-11-07T00:14:18.395Z,252.02
2022-11-07T00:16:47.753Z,286.33
2022-11-07T00:19:18.183Z,284.88
2022-11-07T00:21:48.559Z,253.52
2022-11-07T00:24:17.915Z,238.93
2022-11-07T00:26:48.298Z,234.55
2022-11-07T00:29:17.877Z,218.25
2022-11-07T00:31:47.780Z,289.63
2022-11-07T00:34:16.460Z,244.27
2022-11-07T00:36:45.127Z,201.65
2022-11-07T00:39:13.619Z,204.80
2022-11-07T00:41:41.925Z,213.70
2022-11-07T00:44:11.702Z,216.75
2022-11-07T00:46:40.147Z,213.00
2022-11-07T00:49:08.632Z,268.60
2022-11-07T00:51:37.304Z,254.98
2022-11-07T00:54:05.866Z,232.27
2022-11-07T00:56:34.183Z,218.45
2022-11-07T00:59:02.647Z,272.38
2022-11-07T01:01:34.484Z,283.45
2022-11-07T01:04:20.421Z,265.67
2022-11-07T01:06:49.001Z,290.50
2022-11-07T01:09:20.094Z,321.33
2022-11-07T01:11:49.074Z,289.85
2022-11-07T01:14:20.201Z,300.92
2022-11-07T01:16:50.132Z,251.70
2022-11-07T01:19:18.685Z,238.98
2022-11-07T01:21:47.398Z,229.88
2022-11-07T01:24:16.182Z,276.75
2022-11-07T01:26:47.866Z,241.57
2022-11-07T01:29:16.737Z,237.20
2022-11-07T01:31:45.142Z,294.33
2022-11-07T01:34:16.986Z,296.77
2022-11-07T01:36:45.657Z,271.75
2022-11-07T01:39:14.103Z,245.70
2022-11-07T01:41:42.989Z,294.00
2022-11-07T01:44:44.398Z,284.08
2022-11-07T01:47:13.422Z,246.82
2022-11-07T01:49:44.464Z,273.33
2022-11-07T01:52:17.031Z,257.33
2022-11-07T01:54:50.677Z,221.38
2022-11-07T01:57:22.303Z,204.30
2022-11-07T01:59:52.532Z,258.80
2022-11-07T02:02:21.145Z,223.52
2022-11-07T02:04:51.008Z,200.20
2022-11-07T02:07:21.853Z,196.63
2022-11-07T02:09:50.375Z,187.90
2022-11-07T02:12:19.907Z,206.02
2022-11-07T02:14:48.617Z,227.18
2022-11-07T02:17:18.004Z,189.13
2022-11-07T02:19:48.286Z,235.77
2022-11-07T02:22:23.221Z,206.32
2022-11-07T02:24:55.411Z,225.73
2022-11-07T02:27:27.293Z,232.98
2022-11-07T02:29:58.735Z,284.05
2022-11-07T02:32:27.167Z,307.25
2022-11-07T02:34:59.161Z,302.45
2022-11-07T02:37:29.529Z,290.30
2022-11-07T02:39:59.774Z,314.35
2022-11-07T02:42:43.323Z,323.70
2022-11-07T02:45:14.031Z,267.38
2022-11-07T02:47:42.662Z,286.38
2022-11-07T02:50:12.352Z,312.85
2022-11-07T02:52:40.755Z,290.63
2022-11-07T02:55:11.598Z,323.27
2022-11-07T02:57:39.990Z,296.90
2022-11-07T03:00:10.654Z,321.83
2022-11-07T03:02:39.529Z,291.27
2022-11-07T03:05:08.645Z,301.40
2022-11-07T03:07:37.037Z,308.02
2022-11-07T03:10:06.319Z,288.40
2022-11-07T03:12:36.011Z,284.80
2022-11-07T03:15:04.924Z,305.13
2022-11-07T03:17:33.502Z,295.08
2022-11-07T03:20:02.037Z,290.27
2022-11-07T03:22:30.529Z,292.73
2022-11-07T03:24:58.923Z,306.25
2022-11-07T03:27:27.349Z,313.58
2022-11-07T03:29:57.230Z,317.33
2022-11-07T03:32:26.467Z,280.42
2022-11-07T03:34:55.050Z,283.92
2022-11-07T03:37:23.437Z,289.10
2022-11-07T03:39:51.909Z,282.13
2022-11-07T03:42:20.422Z,294.55
2022-11-07T03:44:48.802Z,277.55
2022-11-07T03:47:18.687Z,288.33
2022-11-07T03:49:47.192Z,319.27
2022-11-07T03:52:15.584Z,286.85
2022-11-07T03:54:44.043Z,297.15
2022-11-07T03:57:12.527Z,269.92
2022-11-07T03:59:40.852Z,276.45
2022-11-07T04:02:09.375Z,317.83
2022-11-07T04:04:39.244Z,290.45
2022-11-07T04:07:07.697Z,292.00
2022-11-07T04:09:36.146Z,276.10
2022-11-07T04:12:22.422Z,288.27
2022-11-07T04:15:08.511Z,275.55
2022-11-07T04:17:36.929Z,292.95
2022-11-07T04:20:07.885Z,310.50
2022-11-07T04:22:36.314Z,274.92
2022-11-07T04:25:05.018Z,299.25
2022-11-07T04:27:44.633Z,319.10
2022-11-07T04:30:23.754Z,293.00
2022-11-07T04:32:53.083Z,293.50
2022-11-07T04:35:23.967Z,311.00
2022-11-07T04:37:52.406Z,302.75
2022-11-07T04:40:22.772Z,288.33
2022-11-07T04:42:51.698Z,304.17
2022-11-07T04:45:20.156Z,314.83
2022-11-07T04:47:48.867Z,296.65
2022-11-07T04:50:19.210Z,311.95
2022-11-07T04:52:49.277Z,294.90
2022-11-07T04:55:25.430Z,299.35
2022-11-07T04:57:54.094Z,306.08
2022-11-07T05:00:23.128Z,292.33
2022-11-07T05:02:52.090Z,304.38
2022-11-07T05:05:20.987Z,309.60
2022-11-07T05:07:51.045Z,294.38
2022-11-07T05:10:21.700Z,297.02
2022-11-07T05:12:50.358Z,307.98
2022-11-07T05:15:19.145Z,342.15
2022-11-07T05:17:47.830Z,300.65
2022-11-07T05:20:32.770Z,263.80
2022-11-07T05:25:45.765Z,298.38
2022-11-07T05:28:15.843Z,298.85
2022-11-07T05:30:45.405Z,283.30
2022-11-07T05:33:17.472Z,309.35
2022-11-07T05:35:47.132Z,231.18
2022-11-07T05:38:17.209Z,254.65
2022-11-07T05:40:47.006Z,226.18
2022-11-07T05:43:17.167Z,295.75
2022-11-07T05:45:46.052Z,254.35
2022-11-07T05:48:15.462Z,245.60
2022-11-07T05:51:00.797Z,293.20
2022-11-07T05:53:31.478Z,308.23
2022-11-07T05:59:12.398Z,318.55
2022-11-07T06:01:41.502Z,322.75
2022-11-07T06:04:10.257Z,279.38
2022-11-07T06:06:38.721Z,313.05
2022-11-07T06:09:08.714Z,272.38
2022-11-07T06:11:37.154Z,314.25
2022-11-07T06:14:05.860Z,323.17
2022-11-07T06:16:34.332Z,315.70
2022-11-07T06:19:03.257Z,490.00
2022-11-07T06:21:31.923Z,339.25
2022-11-07T06:24:00.643Z,346.48
2022-11-07T06:26:30.668Z,426.13
2022-11-07T06:28:59.221Z,445.95
2022-11-07T06:31:27.698Z,305.77
2022-11-07T06:33:56.235Z,396.88
2022-11-07T06:36:24.717Z,348.83
2022-11-07T06:38:53.676Z,304.33
2022-11-07T06:41:22.196Z,329.58
2022-11-07T06:43:54.177Z,349.27
2022-11-07T06:46:23.288Z,353.88
2022-11-07T06:48:51.791Z,358.48
2022-11-07T06:51:20.668Z,541.97
2022-11-07T06:53:50.350Z,303.00
2022-11-07T06:56:18.834Z,302.83
2022-11-07T06:58:47.314Z,292.30
2022-11-07T07:01:17.274Z,322.08
2022-11-07T07:03:46.335Z,299.85
2022-11-07T07:06:17.601Z,290.13
2022-11-07T07:08:46.665Z,463.80
2022-11-07T07:11:16.717Z,314.08
2022-11-07T07:13:45.214Z,361.58
2022-11-07T07:16:14.115Z,301.02
2022-11-07T07:18:43.845Z,340.77
2022-11-07T07:21:14.297Z,291.17
2022-11-07T07:23:43.108Z,303.75
2022-11-07T07:26:14.214Z,527.22
2022-11-07T07:28:43.078Z,298.02
2022-11-07T07:31:19.332Z,319.58
2022-11-07T07:33:50.173Z,351.77
2022-11-07T07:36:21.022Z,398.52
2022-11-07T07:38:49.632Z,317.58
2022-11-07T07:41:19.872Z,336.17
2022-11-07T07:43:48.391Z,382.70
2022-11-07T07:46:19.081Z,333.85
2022-11-07T07:48:49.015Z,334.50
2022-11-07T07:51:17.500Z,357.60
2022-11-07T07:53:45.988Z,359.00
2022-11-07T07:56:15.057Z,336.77
2022-11-07T07:58:43.477Z,365.52
2022-11-07T08:01:12.214Z,341.60
2022-11-07T08:04:00.327Z,315.08
2022-11-07T08:06:30.465Z,370.75
2022-11-07T08:08:58.960Z,405.88
2022-11-07T08:11:27.558Z,329.20
2022-11-07T08:14:52.506Z,347.63
2022-11-07T08:17:20.903Z,398.67
2022-11-07T08:19:49.238Z,317.23
2022-11-07T08:22:19.262Z,312.38
2022-11-07T08:24:47.694Z,312.52
2022-11-07T08:27:16.046Z,306.67
2022-11-07T08:29:44.467Z,348.20
2022-11-07T08:32:13.316Z,602.47
2022-11-07T08:34:41.641Z,485.50
2022-11-07T08:37:10.040Z,427.27
2022-11-07T08:39:39.847Z,407.65
2022-11-07T08:42:08.335Z,443.55
2022-11-07T08:44:36.848Z,412.58
2022-11-07T08:47:08.467Z,423.48
2022-11-07T08:49:37.145Z,424.25
2022-11-07T08:52:05.830Z,382.65
2022-11-07T08:54:34.895Z,465.25
2022-11-07T08:57:05.041Z,434.83
2022-11-07T08:59:33.861Z,400.25
2022-11-07T09:02:47.526Z,415.80
2022-11-07T09:04:50.859Z,426.45
2022-11-07T09:07:19.402Z,444.75
2022-11-07T09:12:57.905Z,440.92
2022-11-07T09:15:26.710Z,447.08
2022-11-07T09:17:55.251Z,390.13
2022-11-07T09:20:23.770Z,389.58
2022-11-07T09:22:56.474Z,450.48
2022-11-07T09:25:24.871Z,451.23
2022-11-07T09:27:53.708Z,470.50
2022-11-07T09:30:23.702Z,389.42
2022-11-07T09:32:52.241Z,425.50
2022-11-07T09:35:20.777Z,424.33
2022-11-07T09:37:50.983Z,453.48
2022-11-07T09:40:26.107Z,421.65
2022-11-07T09:43:07.024Z,396.98
2022-11-07T09:45:42.857Z,480.73
2022-11-07T09:48:18.821Z,408.85
2022-11-07T09:50:49.668Z,411.42
2022-11-07T09:53:23.348Z,379.23
2022-11-07T09:55:53.989Z,396.20
2022-11-07T09:58:27.844Z,378.80
2022-11-07T10:01:01.447Z,437.00
2022-11-07T10:03:30.000Z,493.08
2022-11-07T10:06:03.951Z,415.58
2022-11-07T10:08:38.804Z,412.50
2022-11-07T10:11:12.532Z,506.33
2022-11-07T10:13:59.041Z,435.42
2022-11-07T10:16:36.243Z,421.55
2022-11-07T10:19:14.186Z,451.92
2022-11-07T10:21:47.094Z,588.63
2022-11-07T10:24:28.526Z,381.85
2022-11-07T10:26:58.237Z,446.98
2022-11-07T10:29:44.590Z,388.90
2022-11-07T10:32:20.764Z,483.58
2022-11-07T10:34:54.318Z,531.10
2022-11-07T10:37:23.234Z,373.70
2022-11-07T10:39:52.058Z,364.95
2022-11-07T10:42:22.374Z,559.92
2022-11-07T10:44:51.049Z,507.45
2022-11-07T10:47:23.170Z,413.50
2022-11-07T10:49:56.565Z,381.13
2022-11-07T10:52:25.487Z,365.48
2022-11-07T10:55:05.482Z,390.95
2022-11-07T10:57:35.478Z,397.75
2022-11-07T11:00:05.985Z,381.50
2022-11-07T11:02:46.675Z,386.33
2022-11-07T11:05:35.757Z,473.42
2022-11-07T11:08:15.938Z,360.02
2022-11-07T11:10:44.819Z,419.52
2022-11-07T11:13:27.662Z,468.27
2022-11-07T11:16:04.279Z,388.48
2022-11-07T11:18:35.531Z,392.55
2022-11-07T11:21:06.886Z,393.75
2022-11-07T11:23:38.115Z,403.55
2022-11-07T11:26:09.115Z,392.73
2022-11-07T11:28:40.992Z,405.77
2022-11-07T11:31:14.503Z,416.65
2022-11-07T11:33:48.507Z,413.17
2022-11-07T11:36:19.473Z,447.85
2022-11-07T11:38:54.370Z,477.05
2022-11-07T11:41:26.445Z,459.48
2022-11-07T11:43:58.127Z,383.30
2022-11-07T11:46:31.318Z,395.98
2022-11-07T11:49:04.784Z,397.63
2022-11-07T11:51:39.623Z,357.33
2022-11-07T11:54:10.753Z,387.90
2022-11-07T11:56:50.461Z,402.58
2022-11-07T12:02:45.100Z,459.35
2022-11-07T12:05:43.422Z,569.00
2022-11-07T12:08:21.604Z,430.08
2022-11-07T12:10:56.394Z,410.45
2022-11-07T12:13:30.726Z,439.27
2022-11-07T12:16:07.845Z,389.90
2022-11-07T12:18:41.982Z,376.50
2022-11-07T12:21:23.606Z,556.97
2022-11-07T12:24:11.127Z,409.08
2022-11-07T12:26:44.851Z,407.13
2022-11-07T12:29:23.570Z,324.13
2022-11-07T12:32:03.619Z,378.55
2022-11-07T12:34:46.163Z,389.17
2022-11-07T12:37:29.977Z,325.77
2022-11-07T12:40:09.748Z,301.87
2022-11-07T12:42:49.438Z,374.58
2022-11-07T12:45:22.868Z,379.08
2022-11-07T12:48:00.700Z,413.30
2022-11-07T12:50:38.824Z,278.10
2022-11-07T12:53:18.716Z,361.58
2022-11-07T12:55:50.842Z,355.00
2022-11-07T12:58:23.342Z,525.13
2022-11-07T13:00:52.477Z,328.48
2022-11-07T13:03:33.009Z,378.45
2022-11-07T13:06:09.736Z,400.05
2022-11-07T13:08:44.919Z,386.65
2022-11-07T13:11:18.608Z,385.23
2022-11-07T13:13:55.711Z,453.35
2022-11-07T13:16:26.245Z,416.02
2022-11-07T13:18:54.716Z,381.95
2022-11-07T13:21:23.690Z,392.95
2022-11-07T13:23:53.667Z,398.08
2022-11-07T13:29:27.223Z,361.20
2022-11-07T13:32:10.745Z,397.20
2022-11-07T13:34:50.012Z,329.45
2022-11-07T13:37:21.709Z,334.25
2022-11-07T13:39:54.643Z,431.23
2022-11-07T13:42:23.868Z,378.92
2022-11-07T13:44:54.895Z,547.10
2022-11-07T13:47:28.043Z,386.70
2022-11-07T13:50:00.073Z,326.75
2022-11-07T13:52:37.011Z,299.23
2022-11-07T13:55:11.030Z,481.75
2022-11-07T13:57:41.579Z,291.95
2022-11-07T14:00:14.589Z,372.75
2022-11-07T14:02:52.196Z,373.90
2022-11-07T14:05:23.766Z,396.30
2022-11-07T14:07:55.180Z,388.85
2022-11-07T14:10:30.934Z,398.02
2022-11-07T14:13:07.171Z,372.65
2022-11-07T14:15:36.448Z,392.23
2022-11-07T14:18:05.086Z,437.30
2022-11-07T14:20:33.460Z,498.35
2022-11-07T14:23:02.448Z,547.80
2022-11-07T14:25:33.994Z,420.02
2022-11-07T14:28:03.006Z,409.50
2022-11-07T14:30:32.678Z,407.63
2022-11-07T14:33:04.767Z,392.05
2022-11-07T14:35:34.893Z,387.50
2022-11-07T14:38:10.459Z,351.10
2022-11-07T14:40:40.310Z,342.65
2022-11-07T14:43:10.904Z,406.73
2022-11-07T14:46:11.789Z,465.42
2022-11-07T14:48:31.610Z,398.55
2022-11-07T14:51:00.599Z,412.02
2022-11-07T14:53:31.910Z,422.63
2022-11-07T14:56:05.608Z,485.95
2022-11-07T14:58:33.967Z,462.17
2022-11-07T15:01:13.269Z,446.13
2022-11-07T15:03:53.562Z,397.63
2022-11-07T15:06:24.595Z,379.98
2022-11-07T15:09:00.787Z,411.90
2022-11-07T15:11:33.085Z,381.67
2022-11-07T15:14:02.982Z,434.38
2022-11-07T15:16:37.618Z,487.23
2022-11-07T15:19:08.798Z,415.58
2022-11-07T15:21:39.177Z,528.38
2022-11-07T15:24:34.373Z,482.95
2022-11-07T15:29:35.161Z,412.50
2022-11-07T15:32:10.188Z,403.83
2022-11-07T15:35:00.775Z,505.13
2022-11-07T15:37:27.613Z,377.45
2022-11-07T15:39:56.052Z,365.65
2022-11-07T15:42:25.732Z,415.38
2022-11-07T15:44:54.217Z,531.47
2022-11-07T15:47:24.211Z,365.02
2022-11-07T15:49:52.634Z,521.40
2022-11-07T15:52:21.097Z,352.30
2022-11-07T15:54:49.496Z,445.70
2022-11-07T15:57:18.466Z,365.60
2022-11-07T15:59:48.358Z,334.20
2022-11-07T16:02:18.227Z,336.42
2022-11-07T16:04:46.658Z,501.00
2022-11-07T16:07:19.005Z,355.50
2022-11-07T16:09:50.695Z,387.38
2022-11-07T16:12:20.167Z,341.23
2022-11-07T16:14:49.878Z,358.98
2022-11-07T16:17:19.563Z,300.30
2022-11-07T16:19:47.967Z,333.95
2022-11-07T16:22:17.076Z,374.48
2022-11-07T16:24:45.479Z,377.02
2022-11-07T16:27:16.883Z,361.08
2022-11-07T16:29:45.394Z,517.47
2022-11-07T16:32:18.488Z,470.63
2022-11-07T16:34:47.922Z,391.38
2022-11-07T16:37:16.308Z,402.73
2022-11-07T16:39:44.942Z,330.73
2022-11-07T16:42:16.203Z,335.95
2022-11-07T16:44:44.902Z,493.60
2022-11-07T16:47:16.848Z,342.50
2022-11-07T16:49:45.757Z,377.90
2022-11-07T16:52:15.965Z,304.20
2022-11-07T16:54:45.034Z,386.40
2022-11-07T16:57:14.672Z,273.95
2022-11-07T16:59:43.726Z,382.02
2022-11-07T17:02:24.670Z,294.70
2022-11-07T17:04:54.455Z,283.50
2022-11-07T17:07:25.480Z,293.15
2022-11-07T17:09:54.072Z,295.75
2022-11-07T17:12:23.250Z,273.73
2022-11-07T17:14:52.593Z,264.40
2022-11-07T17:17:22.700Z,315.25
2022-11-07T17:19:51.173Z,333.63
2022-11-07T17:22:20.051Z,296.08
2022-11-07T17:24:48.531Z,293.45
2022-11-07T17:27:25.305Z,333.52
2022-11-07T17:29:54.568Z,297.02
2022-11-07T17:32:24.488Z,276.13
2022-11-07T17:35:17.683Z,299.10
2022-11-07T17:37:41.332Z,329.80
2022-11-07T17:40:13.214Z,279.85
2022-11-07T17:42:44.968Z,295.52
2022-11-07T17:45:13.374Z,306.13
2022-11-07T17:47:43.379Z,298.83
2022-11-07T17:50:16.612Z,321.13
2022-11-07T17:52:45.083Z,375.35
2022-11-07T17:55:17.256Z,284.73
2022-11-07T17:57:57.977Z,455.67
2022-11-07T18:00:28.368Z,281.75
2022-11-07T18:03:01.792Z,513.65
2022-11-07T18:05:34.628Z,361.95
2022-11-07T18:08:04.638Z,321.15
2022-11-07T18:10:33.988Z,385.67
2022-11-07T18:13:33.110Z,391.30
2022-11-07T18:16:05.576Z,360.92
2022-11-07T18:18:35.820Z,429.38
2022-11-07T18:21:11.283Z,455.42
2022-11-07T18:23:42.168Z,382.70
2022-11-07T18:26:15.950Z,334.38
2022-11-07T18:28:45.050Z,277.35
2022-11-07T18:31:18.704Z,339.95
2022-11-07T18:33:53.735Z,361.60
2022-11-07T18:36:39.751Z,414.20
2022-11-07T18:39:18.557Z,400.65
2022-11-07T18:41:47.782Z,405.15
2022-11-07T18:47:24.311Z,303.45
2022-11-07T18:56:41.408Z,375.63
2022-11-07T18:59:12.298Z,360.45
2022-11-07T19:01:43.843Z,355.60
2022-11-07T19:04:37.829Z,368.13
2022-11-07T19:07:14.448Z,430.65
2022-11-07T19:09:46.840Z,366.45
2022-11-07T19:12:15.866Z,318.75
2022-11-07T19:14:44.465Z,331.25
2022-11-07T19:17:13.009Z,293.15
2022-11-07T19:19:41.502Z,304.48
2022-11-07T19:22:12.996Z,377.63
2022-11-07T19:24:43.365Z,328.55
2022-11-07T19:27:12.154Z,315.00
2022-11-07T19:29:40.830Z,315.17
2022-11-07T19:32:09.713Z,302.35
2022-11-07T19:34:38.377Z,311.63
2022-11-07T19:37:07.239Z,412.40
2022-11-07T19:39:38.012Z,354.35
2022-11-07T19:42:08.582Z,296.55
2022-11-07T19:44:37.297Z,305.83
2022-11-07T19:47:06.314Z,359.55
2022-11-07T19:49:36.379Z,316.60
2022-11-07T19:52:05.367Z,323.02
2022-11-07T19:54:34.552Z,322.08
2022-11-07T19:57:03.563Z,305.27
2022-11-07T20:04:46.848Z,306.85
2022-11-07T20:07:15.887Z,292.58
2022-11-07T20:09:44.827Z,342.40
2022-11-07T20:12:13.585Z,296.55
2022-11-07T20:14:42.366Z,324.75
2022-11-07T20:17:11.213Z,324.02
2022-11-07T20:19:39.950Z,320.75
2022-11-07T20:22:12.014Z,302.30
2022-11-07T20:24:40.855Z,311.38
2022-11-07T20:27:09.604Z,323.63
2022-11-07T20:29:38.840Z,341.95
2022-11-07T20:32:07.609Z,329.90
2022-11-07T20:34:42.444Z,378.42
2022-11-07T20:37:13.838Z,339.50
2022-11-07T20:39:46.448Z,322.25
2022-11-07T20:42:17.431Z,334.38
2022-11-07T20:44:46.363Z,321.15
2022-11-07T20:47:16.924Z,337.40
2022-11-07T20:49:45.719Z,320.10
2022-11-07T20:52:15.736Z,309.08
2022-11-07T20:54:45.056Z,358.38
2022-11-07T20:57:13.829Z,343.65
2022-11-07T20:59:42.825Z,346.45
2022-11-07T21:05:24.005Z,323.75
2022-11-07T21:07:53.926Z,318.65
2022-11-07T21:10:22.390Z,315.88
2022-11-07T21:12:50.909Z,332.98
2022-11-07T21:15:25.433Z,326.60
2022-11-07T21:18:01.168Z,333.23
2022-11-07T21:20:38.730Z,320.98
2022-11-07T21:23:09.793Z,326.60
2022-11-07T21:25:48.574Z,317.95
2022-11-07T21:28:19.145Z,315.38
2022-11-07T21:30:59.358Z,347.70
2022-11-07T21:33:27.956Z,323.40
2022-11-07T21:35:56.423Z,324.08
2022-11-07T21:38:26.110Z,319.10
2022-11-07T21:40:54.739Z,317.08
2022-11-07T21:43:23.076Z,300.65
2022-11-07T21:45:51.502Z,298.67
2022-11-07T21:48:19.929Z,295.70
2022-11-07T21:50:50.322Z,297.85
2022-11-07T21:53:19.233Z,318.08
2022-11-07T21:55:49.274Z,306.83
2022-11-07T21:58:19.656Z,287.60
2022-11-07T22:00:48.071Z,312.50
2022-11-07T22:03:18.780Z,308.17
2022-11-07T22:05:55.819Z,320.27
2022-11-07T22:08:24.397Z,301.92
2022-11-07T22:10:54.182Z,292.85
2022-11-07T22:13:22.604Z,314.00
2022-11-07T22:15:51.124Z,303.88
2022-11-07T22:18:19.530Z,311.83
2022-11-07T22:20:47.989Z,299.38
2022-11-07T22:23:16.916Z,312.20
2022-11-07T22:25:45.894Z,314.55
2022-11-07T22:28:15.710Z,316.00
2022-11-07T22:30:44.098Z,323.23
2022-11-07T22:33:13.077Z,323.00
2022-11-07T22:35:41.562Z,314.77
2022-11-07T22:38:09.989Z,299.83
2022-11-07T22:40:38.422Z,312.42
2022-11-07T22:43:06.880Z,306.45
2022-11-07T22:45:38.937Z,301.30
2022-11-07T22:48:07.561Z,314.60
2022-11-07T22:50:36.404Z,308.88
2022-11-07T22:53:04.946Z,305.08
2022-11-07T22:55:36.753Z,305.98
2022-11-07T22:58:05.397Z,298.27
2022-11-07T23:00:35.167Z,318.80
2022-11-07T23:03:03.659Z,314.13
2022-11-07T23:05:32.025Z,299.10
2022-11-07T23:08:00.540Z,299.70
2022-11-07T23:10:28.913Z,303.40
2022-11-07T23:12:57.507Z,305.48
2022-11-07T23:15:25.965Z,298.88
2022-11-07T23:17:55.774Z,279.48
2022-11-07T23:20:38.063Z,294.38
2022-11-07T23:23:06.475Z,303.08
2022-11-07T23:25:36.876Z,310.23
2022-11-07T23:28:07.303Z,310.40
2022-11-07T23:30:38.465Z,350.60
2022-11-07T23:33:08.720Z,286.52
2022-11-07T23:35:37.055Z,294.63
2022-11-07T23:38:05.310Z,307.60
2022-11-07T23:40:33.756Z,310.05
2022-11-07T23:43:02.214Z,301.40
2022-11-07T23:45:48.221Z,316.35
2022-11-07T23:48:35.155Z,305.77
2022-11-07T23:51:04.589Z,287.95
2022-11-07T23:53:50.960Z,297.00
2022-11-07T23:56:19.860Z,305.13
2022-11-07T23:59:05.895Z,305.80
